Coosawatchie, South Carolina
Current Conditions -  °F | °C
As of 6:56 AM on Saturday 25 Oct 2014 (Local Time) from KNBC Reporting Station
Clear Clear  
Wind Chill: 50°   Ceiling: Unl
Heat Index: 50°   Visibility: 10mi
Dew Point: 48°   Wind: 3mph
Humidity: 93%   Direction: 340°NNW
Pressure: 30.01"   Gusts: NA
Location:  32.59°N, 80.93°W
Report Text: KNBC 251056Z AUTO 34003KT 10SM CLR 10/09 A3001 RMK AO2 SLP162 T01000089 $
Loading
Personal Weather Stations






























Interactive Weather Map
Tropical Storm Tracking
New forecast layout! Learn more

10-Day Weather Forecast

Advertisements
Track Severe Weather on mobile